createdAt,value
2022-11-20T17:22:07.395Z,19.55
2022-11-20T17:24:34.928Z,18.55
2022-11-20T17:27:02.471Z,18.40
2022-11-20T17:29:29.846Z,17.02
2022-11-20T17:31:57.190Z,18.55
2022-11-20T17:34:24.851Z,17.17
2022-11-20T17:36:52.444Z,17.67
2022-11-20T17:39:19.864Z,17.00
2022-11-20T17:42:07.227Z,16.40
2022-11-20T17:44:35.086Z,15.73
2022-11-20T17:47:02.984Z,16.10
2022-11-20T17:49:30.397Z,17.60
2022-11-20T17:51:57.902Z,15.45
2022-11-20T17:54:25.534Z,16.35
2022-11-20T17:57:11.750Z,15.88
2022-11-20T17:59:39.539Z,15.75
2022-11-20T18:02:07.601Z,15.85
2022-11-20T18:04:34.951Z,17.38
2022-11-20T18:07:02.318Z,17.00
2022-11-20T18:09:29.881Z,16.58
2022-11-20T18:11:57.233Z,17.35
2022-11-20T18:14:34.670Z,16.00
2022-11-20T18:17:13.473Z,16.75
2022-11-20T18:19:55.574Z,17.40
2022-11-20T18:22:31.188Z,16.33
2022-11-20T18:24:58.583Z,16.50
2022-11-20T18:27:26.024Z,17.25
2022-11-20T18:29:53.636Z,16.58
2022-11-20T18:32:22.516Z,17.42
2022-11-20T18:34:50.828Z,18.52
2022-11-20T18:37:18.249Z,17.02
2022-11-20T18:39:45.853Z,18.55
2022-11-20T18:42:33.731Z,18.52
2022-11-20T18:45:04.158Z,17.45
2022-11-20T18:47:36.107Z,19.08
2022-11-20T18:50:05.200Z,18.70
2022-11-20T18:52:40.253Z,19.88
2022-11-20T18:55:08.705Z,19.98
2022-11-20T18:57:36.130Z,19.83
2022-11-20T19:00:09.167Z,18.98
2022-11-20T19:02:43.031Z,19.65
2022-11-20T19:05:12.334Z,21.08
2022-11-20T19:07:40.068Z,20.20
2022-11-20T19:10:08.148Z,21.40
2022-11-20T19:12:35.557Z,20.38
2022-11-20T19:15:03.332Z,21.05
2022-11-20T19:17:30.695Z,21.38
2022-11-20T19:19:58.042Z,21.50
2022-11-20T19:22:25.360Z,20.60
2022-11-20T19:24:52.754Z,22.90
2022-11-20T19:27:20.224Z,21.45
2022-11-20T19:29:47.559Z,22.10
2022-11-20T19:32:14.918Z,21.95
2022-11-20T19:34:42.202Z,21.35
2022-11-20T19:37:09.909Z,21.67
2022-11-20T19:39:37.516Z,21.98
2022-11-20T19:42:04.972Z,21.20
2022-11-20T19:44:33.115Z,21.58
2022-11-20T19:47:00.741Z,21.13
2022-11-20T19:49:28.129Z,20.80
2022-11-20T19:51:56.434Z,19.35
2022-11-20T19:54:23.850Z,20.55
2022-11-20T19:56:51.218Z,21.20
2022-11-20T19:59:18.561Z,20.08
2022-11-20T20:01:46.043Z,20.20
2022-11-20T20:04:13.571Z,19.20
2022-11-20T20:06:41.756Z,20.35
2022-11-20T20:09:12.136Z,20.98
2022-11-20T20:11:40.381Z,21.00
2022-11-20T20:14:13.773Z,20.10
2022-11-20T20:16:41.988Z,21.17
2022-11-20T20:19:13.420Z,19.65
2022-11-20T20:21:44.254Z,19.55
2022-11-20T20:24:12.245Z,20.50
2022-11-20T20:26:39.804Z,19.30
2022-11-20T20:29:07.196Z,20.30
2022-11-20T20:31:35.132Z,21.27
2022-11-20T20:34:05.245Z,21.17
2022-11-20T20:36:33.064Z,20.13
2022-11-20T20:39:02.470Z,21.30
2022-11-20T20:41:30.003Z,20.42
2022-11-20T20:44:15.992Z,20.67
2022-11-20T20:46:43.788Z,19.65
2022-11-20T20:49:11.341Z,18.67
2022-11-20T20:51:38.805Z,20.17
2022-11-20T20:54:06.281Z,20.48
2022-11-20T20:56:33.765Z,21.85
2022-11-20T20:59:01.133Z,21.50
2022-11-20T21:01:29.678Z,21.27
2022-11-20T21:03:57.192Z,21.13
2022-11-20T21:06:25.527Z,21.83
2022-11-20T21:08:53.214Z,21.67
2022-11-20T21:11:21.061Z,21.23
2022-11-20T21:13:49.332Z,21.33
2022-11-20T21:16:18.968Z,20.55
2022-11-20T21:18:46.912Z,20.67
2022-11-20T21:21:34.611Z,20.50
2022-11-20T21:24:02.755Z,21.40
2022-11-20T21:26:30.224Z,21.38
2022-11-20T21:28:58.133Z,20.90
2022-11-20T21:31:26.835Z,20.15
2022-11-20T21:33:56.609Z,20.23
2022-11-20T21:36:31.520Z,20.85
2022-11-20T21:39:02.214Z,21.23
2022-11-20T21:41:30.934Z,21.25
2022-11-20T21:46:47.324Z,18.63
2022-11-20T21:49:15.301Z,21.25
2022-11-20T21:51:42.716Z,20.25
2022-11-20T21:54:10.680Z,18.90
2022-11-20T21:56:38.107Z,19.80
2022-11-20T21:59:05.562Z,19.95
2022-11-20T22:01:33.098Z,19.30
2022-11-20T22:04:02.568Z,20.13
2022-11-20T22:06:35.335Z,20.00
2022-11-20T22:09:03.354Z,19.75
2022-11-20T22:11:31.038Z,20.75
2022-11-20T22:14:17.517Z,20.25
2022-11-20T22:16:44.913Z,20.00
2022-11-20T22:19:12.380Z,20.08
2022-11-20T22:21:40.744Z,19.48
2022-11-20T22:24:12.232Z,19.63
2022-11-20T22:26:40.807Z,19.73
2022-11-20T22:29:15.630Z,19.60
2022-11-20T22:31:43.294Z,19.90
2022-11-20T22:34:12.578Z,20.88
2022-11-20T22:36:40.825Z,20.02
2022-11-20T22:39:08.796Z,19.52
2022-11-20T22:41:36.356Z,19.55
2022-11-20T22:44:07.738Z,18.77
2022-11-20T22:46:36.986Z,19.00
2022-11-20T22:49:06.759Z,19.00
2022-11-20T22:51:36.936Z,19.67
2022-11-20T22:54:04.750Z,20.92
2022-11-20T22:56:32.583Z,18.52
2022-11-20T22:59:00.020Z,20.38
2022-11-20T23:01:29.625Z,20.02
2022-11-20T23:04:05.388Z,18.50
2022-11-20T23:06:34.470Z,18.98
2022-11-20T23:09:03.108Z,19.23
2022-11-20T23:11:31.523Z,19.30
2022-11-20T23:14:01.284Z,20.10
2022-11-20T23:16:30.316Z,19.35
2022-11-20T23:19:00.905Z,18.10
2022-11-20T23:21:28.875Z,18.08
2022-11-20T23:23:57.792Z,19.15
2022-11-20T23:26:28.138Z,17.98
2022-11-20T23:28:57.568Z,17.73
2022-11-20T23:31:25.972Z,18.65
2022-11-20T23:33:53.391Z,18.42
2022-11-20T23:36:21.194Z,18.38
2022-11-20T23:38:48.683Z,18.65
2022-11-20T23:41:15.957Z,17.92
2022-11-20T23:43:43.320Z,17.40
2022-11-20T23:46:15.221Z,17.50
2022-11-20T23:48:45.173Z,17.50
2022-11-20T23:51:13.232Z,18.88
2022-11-20T23:53:40.711Z,16.65
2022-11-20T23:56:08.408Z,17.55
2022-11-20T23:58:38.470Z,16.88
